Terminal Aerodrome Forecast
Issued by NWS Upton, NY

Home | Current Version | Previous Version | Text Only | Print | Product List | Glossary On
Versions: 1 2 3 4 5 6 7 8 9 10 11 12 13 14 15 16 17 18 19 20 21 22 23 24 25 26 27
000
FTUS41 KOKX 282300
TAFLGA
TAF
KLGA 282326Z 2900/2924 28017G26KT P6SM SCT050
     FM290300 30015G22KT P6SM SCT050 SCT080
     FM290900 30008KT P6SM SCT080
     FM291700 26007KT P6SM SCT070
     FM292000 21009KT P6SM BKN070=

USA.gov is the U.S. government's official web portal to all federal, state and local government web resources and services.